Time;durP1;ratioP1;P1;durP2;ratioP2;P2;SDS_P1;SDS_P2;PMS_P1;PMS_P2;Temp;Humidity;BMP_temperature;BMP_pressure;BME280_temperature;BME280_humidity;BME280_pressure;Samples;Min_cycle;Max_cycle;Signal;HPM_P1;HPM_P2
2022/06/03 00:01:08;;;;;;;10.13;5.43;;;14.70;99.90;;;;;;5095748;28;20698;-77
2022/06/03 00:03:49;;;;;;;10.25;5.47;;;14.60;99.90;;;;;;5080634;28;20206;-76
2022/06/03 00:06:46;;;;;;;9.10;5.15;;;14.60;99.90;;;;;;5078058;28;20202;-77
2022/06/03 00:09:27;;;;;;;8.13;5.30;;;14.60;99.90;;;;;;5084203;28;20250;-77
2022/06/03 00:12:25;;;;;;;8.45;5.95;;;14.60;99.90;;;;;;5114950;28;20205;-77
2022/06/03 00:14:51;;;;;;;10.48;6.40;;;14.60;99.90;;;;;;5094981;28;20513;-77
2022/06/03 00:17:40;;;;;;;8.95;6.30;;;14.60;99.90;;;;;;5096463;28;20367;-76
2022/06/03 00:20:24;;;;;;;8.63;5.50;;;14.50;99.90;;;;;;5089979;28;20285;-77
2022/06/03 00:23:08;;;;;;;8.45;5.55;;;14.50;99.90;;;;;;5094311;28;20174;-78
2022/06/03 00:26:12;;;;;;;9.25;5.32;;;14.50;99.90;;;;;;5113584;28;20693;-76
2022/06/03 00:29:14;;;;;;;7.05;4.88;;;14.50;99.90;;;;;;5095979;28;20214;-78
2022/06/03 00:32:09;;;;;;;8.75;5.90;;;14.50;99.90;;;;;;5080005;28;20290;-77
2022/06/03 00:34:59;;;;;;;8.75;4.95;;;14.50;99.90;;;;;;5087580;28;20293;-77
2022/06/03 00:37:44;;;;;;;6.38;4.90;;;14.40;99.90;;;;;;5114612;28;20288;-77
2022/06/03 00:40:24;;;;;;;9.77;6.50;;;14.40;99.90;;;;;;5080641;28;20285;-77
2022/06/03 00:43:11;;;;;;;6.80;5.65;;;14.30;99.90;;;;;;5076005;28;20209;-77
2022/06/03 00:45:59;;;;;;;7.32;5.25;;;14.30;99.90;;;;;;5094648;28;20197;-77
2022/06/03 00:48:44;;;;;;;7.43;5.50;;;14.30;99.90;;;;;;5113506;28;20281;-78
2022/06/03 00:51:19;;;;;;;8.68;5.80;;;14.30;99.90;;;;;;5095754;28;20263;-77
2022/06/03 00:54:12;;;;;;;8.00;5.55;;;14.20;99.90;;;;;;5114002;28;20595;-77
2022/06/03 00:56:54;;;;;;;6.03;4.60;;;14.20;99.90;;;;;;5114013;28;20221;-77
2022/06/03 00:59:38;;;;;;;8.57;5.90;;;14.20;99.90;;;;;;5095266;28;20193;-77
2022/06/03 01:02:41;;;;;;;9.15;5.10;;;14.20;99.90;;;;;;5081525;28;20166;-77
2022/06/03 01:05:31;;;;;;;7.30;5.53;;;14.20;99.90;;;;;;5075521;28;20201;-77
2022/06/03 01:08:03;;;;;;;8.15;5.88;;;14.20;99.90;;;;;;5088371;28;20219;-77
2022/06/03 01:10:49;;;;;;;10.80;5.78;;;14.20;99.90;;;;;;5096063;28;20254;-76
2022/06/03 01:13:24;;;;;;;7.88;4.75;;;14.20;99.90;;;;;;5114419;28;20213;-76
2022/06/03 01:16:25;;;;;;;8.55;4.70;;;14.20;99.90;;;;;;5094743;28;20258;-78
2022/06/03 01:19:22;;;;;;;6.40;4.70;;;14.20;99.90;;;;;;5022429;28;20216;-76
2022/06/03 01:22:10;;;;;;;5.97;4.28;;;14.20;99.90;;;;;;5109542;28;20213;-77
2022/06/03 01:25:07;;;;;;;7.07;4.90;;;14.20;99.90;;;;;;5094256;28;20331;-78
2022/06/03 01:28:09;;;;;;;6.28;4.55;;;14.10;99.90;;;;;;5095384;28;20262;-77
2022/06/03 01:30:43;;;;;;;6.55;4.93;;;14.10;99.90;;;;;;5105077;28;20720;-76
2022/06/03 01:33:28;;;;;;;5.53;4.50;;;14.10;99.90;;;;;;5080436;28;20204;-77
2022/06/03 01:36:03;;;;;;;6.78;5.10;;;14.10;99.90;;;;;;5088599;28;20207;-77
2022/06/03 01:38:38;;;;;;;7.32;4.18;;;14.00;99.90;;;;;;5097266;28;20232;-77
2022/06/03 01:41:20;;;;;;;7.93;5.38;;;13.90;99.90;;;;;;5098137;28;20201;-77
2022/06/03 01:44:04;;;;;;;8.27;5.88;;;13.90;99.90;;;;;;5094743;28;20185;-77
2022/06/03 01:46:38;;;;;;;6.63;4.82;;;13.90;99.90;;;;;;5086027;28;20217;-77
2022/06/03 01:49:46;;;;;;;7.22;4.20;;;13.90;99.90;;;;;;5094897;28;20201;-77
2022/06/03 01:53:03;;;;;;;7.80;4.70;;;13.80;99.90;;;;;;5134760;22;20223;-72
2022/06/03 01:55:46;;;;;;;7.72;4.70;;;13.80;99.90;;;;;;5048704;28;20214;-72
2022/06/03 01:58:12;;;;;;;5.40;4.72;;;13.80;99.90;;;;;;5093940;28;20681;-72
2022/06/03 02:00:43;;;;;;;6.60;4.93;;;13.70;99.90;;;;;;5094250;28;20216;-72
2022/06/03 02:03:12;;;;;;;8.90;4.47;;;13.70;99.90;;;;;;5112172;28;20205;-72
2022/06/03 02:05:56;;;;;;;5.97;4.10;;;13.80;99.90;;;;;;5094210;28;20216;-72
2022/06/03 02:08:46;;;;;;;7.22;4.80;;;13.80;99.90;;;;;;5093286;28;20212;-72
2022/06/03 02:11:42;;;;;;;6.43;4.38;;;13.70;99.90;;;;;;5113654;28;20301;-73
2022/06/03 02:14:30;;;;;;;8.60;4.72;;;13.70;99.90;;;;;;5095305;28;20213;-73
2022/06/03 02:17:07;;;;;;;5.88;4.35;;;13.70;99.90;;;;;;5071156;28;20602;-72
2022/06/03 02:19:48;;;;;;;5.85;4.30;;;13.60;99.90;;;;;;5094821;28;20208;-73
2022/06/03 02:22:52;;;;;;;6.60;4.72;;;13.60;99.90;;;;;;5095463;28;20208;-73
2022/06/03 02:25:43;;;;;;;9.23;5.40;;;13.70;99.90;;;;;;5058394;28;20205;-73
2022/06/03 02:28:11;;;;;;;6.70;5.10;;;13.60;99.90;;;;;;5093426;28;20213;-74
2022/06/03 02:31:05;;;;;;;6.07;4.90;;;13.60;99.90;;;;;;5111952;28;20202;-73
2022/06/03 02:34:06;;;;;;;6.35;4.90;;;13.50;99.90;;;;;;5093122;28;20662;-73
2022/06/03 02:36:53;;;;;;;7.13;5.43;;;13.50;99.90;;;;;;5111794;28;20592;-73
2022/06/03 02:39:48;;;;;;;7.80;5.00;;;13.60;99.90;;;;;;5111289;28;20197;-73
2022/06/03 02:42:52;;;;;;;7.53;4.82;;;13.50;99.90;;;;;;5102844;28;20209;-73
2022/06/03 02:45:17;;;;;;;12.02;5.10;;;13.60;99.90;;;;;;5086071;28;20197;-73
2022/06/03 02:48:14;;;;;;;8.05;5.28;;;13.50;99.90;;;;;;5086915;28;20543;-71
2022/06/03 02:50:51;;;;;;;9.33;5.10;;;13.50;99.90;;;;;;5093096;28;20206;-73
2022/06/03 02:53:31;;;;;;;8.95;4.70;;;13.50;99.90;;;;;;5093460;28;20261;-73
2022/06/03 02:56:20;;;;;;;7.07;4.70;;;13.50;99.90;;;;;;5080141;28;20174;-73
2022/06/03 02:59:16;;;;;;;6.30;4.88;;;13.50;99.90;;;;;;5076054;28;20177;-72
2022/06/03 03:02:20;;;;;;;5.28;4.22;;;13.50;99.90;;;;;;5111653;28;20203;-72
2022/06/03 03:05:07;;;;;;;9.95;5.13;;;13.50;99.90;;;;;;5077016;28;20204;-73
2022/06/03 03:07:48;;;;;;;5.90;4.40;;;13.50;99.90;;;;;;5093600;28;20176;-72
2022/06/03 03:10:35;;;;;;;8.35;4.93;;;13.60;99.90;;;;;;5093240;28;20270;-72
2022/06/03 03:13:33;;;;;;;9.52;5.15;;;13.60;99.90;;;;;;5081027;28;20202;-72
2022/06/03 03:16:40;;;;;;;6.32;5.20;;;13.50;99.90;;;;;;5095712;28;20276;-72
2022/06/03 03:19:33;;;;;;;7.43;5.03;;;13.60;99.90;;;;;;5081425;28;20197;-72
2022/06/03 03:22:27;;;;;;;7.80;5.05;;;13.60;99.90;;;;;;5083837;28;20201;-73
2022/06/03 03:25:02;;;;;;;8.68;5.60;;;13.60;99.90;;;;;;5080161;28;20194;-72
2022/06/03 03:28:06;;;;;;;7.35;5.07;;;14.40;99.90;;;;;;5094046;28;20716;-73
2022/06/03 03:31:03;;;;;;;7.30;4.80;;;16.30;99.90;;;;;;5054502;28;20613;-73
2022/06/03 03:33:44;;;;;;;8.15;5.05;;;18.00;99.90;;;;;;5077038;28;20559;-73
2022/06/03 03:36:43;;;;;;;9.15;5.10;;;19.00;99.90;;;;;;5093539;28;20201;-73
2022/06/03 03:39:40;;;;;;;7.25;5.13;;;19.70;99.90;;;;;;5086187;28;20673;-73
2022/06/03 03:42:33;;;;;;;9.27;5.53;;;19.90;99.90;;;;;;5086371;28;20197;-73
2022/06/03 03:45:17;;;;;;;7.50;5.07;;;20.90;99.90;;;;;;5084762;28;20201;-73
2022/06/03 03:48:16;;;;;;;6.78;5.22;;;21.90;99.90;;;;;;5108933;28;20197;-72
2022/06/03 03:51:06;;;;;;;7.97;4.85;;;22.00;99.90;;;;;;5096776;28;20208;-73
2022/06/03 03:53:47;;;;;;;8.30;5.45;;;22.80;99.90;;;;;;5096835;28;20209;-73
2022/06/03 03:56:40;;;;;;;7.70;4.75;;;23.70;99.90;;;;;;5115512;28;20250;-73
2022/06/03 03:59:30;;;;;;;7.22;4.50;;;23.10;99.90;;;;;;5103233;28;20692;-73
2022/06/03 04:02:07;;;;;;;7.68;5.20;;;23.70;99.90;;;;;;5082646;28;20193;-73
2022/06/03 04:04:45;;;;;;;6.03;4.80;;;24.10;99.90;;;;;;5097038;28;20221;-73
2022/06/03 04:07:26;;;;;;;8.43;5.90;;;25.90;99.90;;;;;;5096988;28;20205;-73
2022/06/03 04:10:13;;;;;;;9.13;5.60;;;27.50;99.90;;;;;;5080925;28;20210;-73
2022/06/03 04:13:24;;;;;;;6.95;5.80;;;26.80;99.90;;;;;;5114645;28;20213;-73
2022/06/03 04:16:02;;;;;;;9.77;7.10;;;27.20;99.90;;;;;;5091497;28;20214;-73
2022/06/03 04:18:42;;;;;;;9.27;6.07;;;27.50;99.90;;;;;;5093111;28;20201;-73
2022/06/03 04:21:14;;;;;;;8.23;5.75;;;27.20;99.90;;;;;;5114811;28;20228;-73
2022/06/03 04:24:30;;;;;;;9.40;6.03;;;27.40;99.90;;;;;;5114446;28;20209;-74
2022/06/03 04:27:40;;;;;;;9.82;5.85;;;28.80;99.90;;;;;;5082150;28;20288;-73
2022/06/03 04:30:22;;;;;;;8.57;5.65;;;29.00;99.90;;;;;;5102961;28;20205;-71
2022/06/03 04:33:18;;;;;;;9.27;5.97;;;28.10;99.90;;;;;;5080332;28;20215;-71
2022/06/03 04:36:14;;;;;;;8.93;6.10;;;28.00;99.90;;;;;;5104141;28;20201;-71
2022/06/03 04:39:17;;;;;;;7.35;6.00;;;28.80;99.90;;;;;;5095291;28;20233;-71
2022/06/03 04:42:02;;;;;;;10.20;6.30;;;27.90;99.50;;;;;;5096351;28;20205;-71
2022/06/03 04:44:42;;;;;;;10.27;6.32;;;27.90;99.10;;;;;;5115288;28;20201;-72
2022/06/03 04:47:27;;;;;;;9.55;6.43;;;28.00;99.90;;;;;;5114831;28;20212;-72
2022/06/03 04:50:30;;;;;;;8.50;6.72;;;28.20;98.10;;;;;;5115156;28;20627;-72
2022/06/03 04:53:04;;;;;;;7.50;6.45;;;28.30;97.80;;;;;;5096433;28;20262;-71
2022/06/03 04:55:49;;;;;;;6.97;6.28;;;29.30;97.20;;;;;;5096786;28;20179;-72
2022/06/03 04:58:49;;;;;;;7.35;6.20;;;29.00;95.20;;;;;;5095694;28;20382;-71
2022/06/03 05:01:51;;;;;;;8.95;6.07;;;28.20;95.70;;;;;;5115112;28;20262;-70
2022/06/03 05:04:52;;;;;;;8.57;5.53;;;27.80;96.60;;;;;;5097061;28;20207;-71
2022/06/03 05:07:48;;;;;;;6.97;6.28;;;28.00;95.60;;;;;;5070621;28;20561;-71
2022/06/03 05:10:25;;;;;;;8.32;6.57;;;28.00;96.80;;;;;;5114330;28;20205;-72
2022/06/03 05:12:57;;;;;;;7.30;6.00;;;29.20;95.00;;;;;;5095885;28;20205;-72
2022/06/03 05:15:43;;;;;;;7.45;5.22;;;28.20;94.50;;;;;;5095883;28;20197;-71
2022/06/03 05:18:36;;;;;;;6.72;4.88;;;27.70;94.20;;;;;;5095248;28;20292;-71
2022/06/03 05:21:37;;;;;;;4.95;4.47;;;27.00;95.30;;;;;;5114440;28;20207;-72
2022/06/03 05:24:24;;;;;;;5.78;4.95;;;28.80;94.30;;;;;;5100482;28;20205;-71
2022/06/03 05:27:35;;;;;;;6.88;5.03;;;29.20;92.60;;;;;;5095972;28;20201;-71
2022/06/03 05:30:34;;;;;;;6.00;4.57;;;29.20;91.60;;;;;;5071058;28;20754;-72
2022/06/03 05:33:01;;;;;;;5.00;4.05;;;30.10;91.20;;;;;;5096010;28;20201;-72
2022/06/03 05:35:38;;;;;;;6.60;4.95;;;30.40;90.90;;;;;;5084235;28;20201;-71
2022/06/03 05:38:09;;;;;;;7.30;4.65;;;30.40;89.90;;;;;;5094859;28;21630;-71
2022/06/03 05:40:59;;;;;;;7.10;5.28;;;30.90;88.90;;;;;;5114974;28;20260;-72
2022/06/03 05:43:50;;;;;;;5.13;4.57;;;31.40;86.80;;;;;;5095624;28;20280;-72
2022/06/03 05:46:27;;;;;;;4.72;4.32;;;32.10;84.70;;;;;;5095898;28;20717;-72
2022/06/03 05:49:08;;;;;;;5.60;4.18;;;30.80;83.40;;;;;;5114298;28;20205;-72
2022/06/03 05:52:03;;;;;;;5.05;3.80;;;30.60;83.60;;;;;;5095410;28;20217;-72
2022/06/03 05:54:37;;;;;;;6.63;3.55;;;29.40;82.70;;;;;;5095106;28;20228;-72
2022/06/03 05:57:09;;;;;;;3.63;3.30;;;28.30;86.70;;;;;;5095537;28;20200;-71
2022/06/03 06:00:10;;;;;;;5.22;3.40;;;27.80;86.40;;;;;;5095840;28;20206;-71
2022/06/03 06:02:54;;;;;;;2.70;2.50;;;27.00;88.10;;;;;;5096210;28;20209;-72
2022/06/03 06:05:51;;;;;;;5.28;3.50;;;27.80;88.50;;;;;;5083947;28;20214;-72
2022/06/03 06:08:51;;;;;;;3.83;3.10;;;29.70;85.60;;;;;;5086572;28;20209;-72
2022/06/03 06:12:06;;;;;;;5.30;2.88;;;28.20;85.50;;;;;;5095178;28;20210;-71
2022/06/03 06:14:40;;;;;;;2.75;2.38;;;27.20;87.00;;;;;;5103978;28;20232;-72
2022/06/03 06:17:49;;;;;;;2.80;2.20;;;26.80;88.30;;;;;;5094754;28;20213;-73
2022/06/03 06:20:45;;;;;;;3.60;2.40;;;27.60;90.00;;;;;;5112682;28;20205;-73
2022/06/03 06:23:38;;;;;;;3.42;2.53;;;30.20;86.00;;;;;;5096308;28;20203;-72
2022/06/03 06:26:42;;;;;;;3.55;3.00;;;29.50;83.60;;;;;;5095417;28;20174;-73
2022/06/03 06:29:28;;;;;;;2.38;2.17;;;29.70;82.70;;;;;;5021908;28;20215;-72
2022/06/03 06:32:09;;;;;;;2.33;2.13;;;29.20;82.50;;;;;;5093942;28;20280;-73
2022/06/03 06:34:43;;;;;;;3.42;2.03;;;29.10;83.00;;;;;;5095559;28;20181;-73
2022/06/03 06:37:46;;;;;;;1.98;1.77;;;29.00;81.60;;;;;;5085420;28;20315;-73
2022/06/03 06:40:30;;;;;;;2.25;1.98;;;29.00;82.10;;;;;;5112644;28;20664;-72
2022/06/03 06:43:35;;;;;;;3.15;1.92;;;28.50;82.80;;;;;;5112791;28;20232;-72
2022/06/03 06:46:10;;;;;;;3.22;2.17;;;28.00;84.10;;;;;;5093926;28;20230;-73
2022/06/03 06:49:04;;;;;;;2.47;2.05;;;29.00;85.60;;;;;;5093754;28;20338;-73
2022/06/03 06:51:52;;;;;;;4.18;2.42;;;29.60;82.20;;;;;;5093626;28;20209;-73
2022/06/03 06:54:24;;;;;;;3.60;2.10;;;30.20;82.20;;;;;;5093894;28;20229;-72
2022/06/03 06:57:01;;;;;;;3.13;2.25;;;29.90;81.30;;;;;;5113032;28;20292;-73
2022/06/03 06:59:38;;;;;;;3.28;2.17;;;30.30;79.30;;;;;;5112554;28;20693;-71
2022/06/03 07:02:15;;;;;;;2.33;2.13;;;30.10;78.60;;;;;;5113606;28;20269;-74
2022/06/03 07:05:03;;;;;;;3.40;2.17;;;29.50;80.40;;;;;;5114530;28;20716;-72
2022/06/03 07:07:33;;;;;;;3.65;1.88;;;30.30;80.00;;;;;;5108670;28;20702;-72
2022/06/03 07:10:09;;;;;;;3.47;2.08;;;30.80;78.20;;;;;;5096183;28;20213;-72
2022/06/03 07:12:42;;;;;;;2.45;1.63;;;30.40;78.40;;;;;;5095389;28;20211;-72
2022/06/03 07:15:15;;;;;;;4.03;2.30;;;31.30;74.90;;;;;;5113933;28;20197;-72
2022/06/03 07:21:08;;;;;;;3.40;1.70;;;31.20;76.30;;;;;;5114897;28;20265;-71
2022/06/03 07:23:40;;;;;;;5.85;2.20;;;30.70;75.80;;;;;;5115107;28;20208;-71
2022/06/03 07:26:09;;;;;;;3.05;1.77;;;30.50;76.50;;;;;;5098646;28;20262;-71
2022/06/03 07:28:48;;;;;;;2.42;2.05;;;30.70;74.70;;;;;;5097563;28;20169;-71
2022/06/03 07:31:40;;;;;;;1.85;1.67;;;31.90;74.80;;;;;;5098200;28;20215;-70
2022/06/03 07:34:16;;;;;;;3.53;1.95;;;31.90;73.30;;;;;;5099247;28;20275;-72
2022/06/03 07:37:06;;;;;;;3.25;1.40;;;31.60;73.50;;;;;;5104535;28;20245;-71
2022/06/03 07:39:50;;;;;;;3.97;1.95;;;30.10;72.60;;;;;;5094447;28;20221;-71
2022/06/03 07:42:18;;;;;;;2.83;2.20;;;30.30;74.80;;;;;;5095689;28;20208;-73
2022/06/03 07:44:56;;;;;;;1.65;1.40;;;30.60;73.10;;;;;;5093447;28;20246;-72
2022/06/03 07:47:25;;;;;;;3.75;2.58;;;32.10;72.20;;;;;;5093240;28;20569;-72
2022/06/03 07:49:57;;;;;;;2.28;1.70;;;32.30;69.50;;;;;;5092487;28;20526;-69
2022/06/03 07:52:33;;;;;;;1.67;1.58;;;31.30;70.60;;;;;;5087073;22;20222;-80
2022/06/03 07:55:04;;;;;;;4.13;2.72;;;30.60;73.10;;;;;;5089841;28;20210;-78
2022/06/03 07:57:30;;;;;;;3.15;2.03;;;30.80;71.50;;;;;;5072324;28;20211;-78
2022/06/03 08:00:01;;;;;;;1.95;1.85;;;30.30;72.10;;;;;;5071880;28;20198;-77
2022/06/03 08:02:27;;;;;;;3.20;1.70;;;30.60;71.70;;;;;;5052499;28;20671;-77
2022/06/03 08:05:08;;;;;;;2.25;1.73;;;30.50;70.80;;;;;;5070776;28;20174;-78
2022/06/03 08:13:07;;;;;;;2.42;1.80;;;29.80;71.30;;;;;;5080575;28;20301;-78
2022/06/03 08:15:36;;;;;;;5.35;1.90;;;30.30;71.20;;;;;;5084800;28;20242;-78
2022/06/03 08:18:05;;;;;;;2.50;1.58;;;30.80;71.40;;;;;;5063908;28;20218;-78
2022/06/03 08:20:34;;;;;;;4.18;1.67;;;31.70;70.00;;;;;;5061645;28;20210;-79
2022/06/03 08:23:02;;;;;;;3.25;1.67;;;30.80;70.50;;;;;;5064294;28;20269;-74
2022/06/03 08:25:33;;;;;;;1.70;1.60;;;30.70;70.40;;;;;;5077160;28;20184;-81
2022/06/03 08:27:59;;;;;;;3.50;1.80;;;30.80;70.50;;;;;;5083557;28;20202;-75
2022/06/03 08:30:28;;;;;;;2.13;1.48;;;30.30;70.60;;;;;;5080244;28;20198;-76
2022/06/03 08:32:59;;;;;;;2.00;1.58;;;30.20;71.40;;;;;;5074266;28;20202;-79
2022/06/03 08:35:28;;;;;;;3.17;1.90;;;30.10;70.30;;;;;;5073849;28;20203;-76
2022/06/03 08:37:58;;;;;;;2.90;1.73;;;30.80;71.70;;;;;;5074777;28;20260;-74
2022/06/03 08:40:32;;;;;;;2.15;2.00;;;31.70;72.20;;;;;;5080867;28;20173;-73
2022/06/03 08:43:07;;;;;;;3.03;2.58;;;30.40;70.50;;;;;;5074235;28;20229;-77
2022/06/03 08:45:58;;;;;;;3.72;2.60;;;30.30;71.20;;;;;;5069619;28;20201;-78
2022/06/03 08:48:38;;;;;;;3.22;1.90;;;29.70;72.50;;;;;;5071699;28;20196;-78
2022/06/03 08:51:10;;;;;;;2.45;1.98;;;28.90;73.40;;;;;;5081947;28;20199;-78
2022/06/03 08:53:49;;;;;;;2.90;1.83;;;28.70;74.00;;;;;;5065103;28;20261;-78
2022/06/03 08:56:19;;;;;;;3.90;2.83;;;29.20;74.60;;;;;;5079950;28;20260;-78
2022/06/03 08:58:57;;;;;;;3.45;2.22;;;29.30;73.00;;;;;;5062634;28;20189;-78
2022/06/03 09:01:27;;;;;;;3.65;2.58;;;30.30;73.30;;;;;;5080877;28;20193;-79
2022/06/03 09:04:17;;;;;;;3.75;2.28;;;29.60;71.70;;;;;;5078912;28;20281;-79
2022/06/03 09:06:45;;;;;;;2.88;1.63;;;28.30;74.60;;;;;;5085297;28;20202;-80
2022/06/03 09:09:19;;;;;;;2.83;1.85;;;28.70;76.90;;;;;;5089696;28;20208;-79
2022/06/03 09:12:04;;;;;;;2.47;1.77;;;28.50;73.00;;;;;;5079310;28;20218;-79
2022/06/03 09:14:31;;;;;;;4.05;2.15;;;28.60;73.30;;;;;;5090052;28;20238;-79
2022/06/03 09:17:07;;;;;;;3.42;2.42;;;27.70;73.90;;;;;;5063318;28;20206;-78
2022/06/03 09:19:40;;;;;;;3.70;2.55;;;28.70;76.10;;;;;;5081807;28;20197;-78
2022/06/03 09:22:15;;;;;;;4.57;2.15;;;29.50;74.30;;;;;;5055834;28;20203;-78
2022/06/03 09:24:43;;;;;;;3.20;2.25;;;29.60;74.00;;;;;;5078550;28;21035;-78
2022/06/03 09:27:13;;;;;;;3.05;2.03;;;29.60;72.90;;;;;;5061021;28;20207;-79
2022/06/03 09:29:40;;;;;;;4.65;2.28;;;29.20;71.70;;;;;;5083828;28;20210;-79
2022/06/03 09:32:08;;;;;;;1.98;1.80;;;28.50;75.00;;;;;;5082706;28;20221;-79
2022/06/03 09:34:48;;;;;;;3.60;2.13;;;29.00;77.30;;;;;;5070544;28;20273;-79
2022/06/03 09:37:35;;;;;;;2.30;2.13;;;28.60;74.20;;;;;;5070098;28;20218;-78
2022/06/03 09:40:05;;;;;;;2.42;2.13;;;27.50;75.50;;;;;;5068583;28;20666;-80
2022/06/03 09:42:33;;;;;;;4.43;2.70;;;27.00;77.10;;;;;;5094030;28;20206;-79
2022/06/03 09:45:02;;;;;;;2.65;2.45;;;26.80;78.50;;;;;;5074641;28;20194;-77
2022/06/03 09:47:29;;;;;;;2.92;2.33;;;26.10;78.10;;;;;;5055841;28;20205;-78
2022/06/03 09:49:54;;;;;;;3.20;2.17;;;25.50;79.60;;;;;;5063738;28;20167;-77
2022/06/03 09:52:23;;;;;;;2.33;1.60;;;25.30;80.30;;;;;;5081677;28;20301;-78
2022/06/03 09:54:50;;;;;;;3.65;2.10;;;25.60;80.90;;;;;;5079686;28;20277;-77
2022/06/03 09:57:30;;;;;;;4.55;1.90;;;26.00;81.50;;;;;;5057849;28;20231;-78
2022/06/03 09:59:59;;;;;;;2.33;1.75;;;26.60;79.50;;;;;;5052917;28;20203;-76
2022/06/03 10:02:27;;;;;;;2.67;1.88;;;26.30;79.50;;;;;;5086152;28;20230;-77
2022/06/03 10:04:54;;;;;;;2.75;2.33;;;25.90;79.90;;;;;;5060560;28;20175;-78
2022/06/03 10:07:20;;;;;;;3.58;3.03;;;25.60;80.00;;;;;;5075692;28;20258;-77
2022/06/03 10:12:56;;;;;;;5.30;2.53;;;25.50;80.40;;;;;;5102132;28;20208;-77
2022/06/03 10:15:39;;;;;;;6.28;2.67;;;25.80;80.70;;;;;;5098396;28;20805;-78
2022/06/03 10:18:14;;;;;;;2.38;2.03;;;25.10;80.90;;;;;;5068089;28;20211;-78
2022/06/03 10:20:40;;;;;;;3.42;1.83;;;25.30;81.90;;;;;;5054606;28;20210;-79
2022/06/03 10:23:09;;;;;;;2.00;1.80;;;25.70;80.60;;;;;;5073113;28;20265;-78
2022/06/03 10:25:42;;;;;;;3.75;1.88;;;25.70;80.80;;;;;;5083185;28;20178;-78
2022/06/03 10:28:10;;;;;;;5.50;2.20;;;25.60;80.40;;;;;;5076550;28;20218;-79
2022/06/03 10:30:40;;;;;;;2.33;1.77;;;26.20;81.30;;;;;;5064889;28;20203;-78
2022/06/03 10:33:19;;;;;;;2.63;1.60;;;26.40;78.30;;;;;;5063564;28;20248;-77
2022/06/03 10:35:47;;;;;;;4.15;1.73;;;26.70;79.50;;;;;;5057597;28;20232;-77
2022/06/03 10:38:17;;;;;;;2.72;1.90;;;26.00;77.50;;;;;;5083384;28;20266;-76
2022/06/03 10:40:47;;;;;;;2.67;1.60;;;26.00;78.10;;;;;;5062174;28;20182;-76
2022/06/03 10:43:24;;;;;;;2.70;1.60;;;25.90;78.80;;;;;;5075952;28;20222;-76
2022/06/03 10:45:50;;;;;;;3.22;1.70;;;25.80;78.50;;;;;;5071487;28;20207;-76
2022/06/03 10:48:25;;;;;;;2.22;1.75;;;25.60;79.30;;;;;;5068149;28;20674;-77
2022/06/03 10:50:52;;;;;;;2.22;1.92;;;25.60;79.80;;;;;;5069191;28;20285;-77
2022/06/03 11:01:52;;;;;;;4.30;1.90;;;25.80;78.50;;;;;;5081702;28;20253;-76
2022/06/03 11:04:24;;;;;;;3.63;1.80;;;25.60;79.50;;;;;;5065285;28;20166;-77
2022/06/03 11:06:50;;;;;;;4.60;3.60;;;25.50;79.60;;;;;;5067825;28;20260;-77
2022/06/03 11:09:17;;;;;;;4.32;1.88;;;25.60;79.30;;;;;;5081647;28;20272;-77
2022/06/03 11:11:47;;;;;;;2.08;1.88;;;25.20;79.30;;;;;;5078925;28;20285;-76
2022/06/03 11:14:34;;;;;;;2.35;2.13;;;25.20;80.20;;;;;;5060317;28;20357;-76
2022/06/03 11:17:15;;;;;;;2.20;1.88;;;25.00;80.80;;;;;;5053291;28;20219;-75
2022/06/03 11:19:53;;;;;;;3.30;1.90;;;24.90;81.90;;;;;;5060664;28;20175;-75
2022/06/03 11:22:20;;;;;;;2.60;1.83;;;25.10;81.40;;;;;;5074152;28;20207;-75
2022/06/03 11:25:10;;;;;;;2.22;2.03;;;25.30;81.50;;;;;;5078901;28;20244;-76
2022/06/03 11:27:46;;;;;;;4.00;2.15;;;25.20;81.30;;;;;;5077825;28;20713;-76
2022/06/03 11:30:17;;;;;;;2.35;2.15;;;25.00;81.50;;;;;;5060543;28;20206;-75
2022/06/03 11:32:47;;;;;;;2.00;1.80;;;24.80;81.40;;;;;;5060678;28;20211;-76
2022/06/03 11:35:25;;;;;;;6.40;2.75;;;24.60;82.10;;;;;;5072827;28;20259;-76
2022/06/03 11:37:52;;;;;;;4.70;1.80;;;25.00;83.00;;;;;;5076079;28;20194;-77
2022/06/03 11:40:37;;;;;;;2.47;1.77;;;25.30;81.50;;;;;;5078971;28;20158;-74
2022/06/03 11:43:10;;;;;;;4.78;1.83;;;24.90;80.90;;;;;;5071501;28;20207;-75
2022/06/03 11:45:57;;;;;;;2.22;1.95;;;24.80;80.60;;;;;;5061965;28;20229;-73
2022/06/03 11:48:38;;;;;;;1.60;1.50;;;24.70;81.20;;;;;;5078757;28;20219;-73
2022/06/03 11:51:06;;;;;;;7.00;2.00;;;25.00;81.90;;;;;;5059305;28;20202;-75
2022/06/03 11:53:35;;;;;;;2.22;2.00;;;24.80;82.00;;;;;;5062160;28;20203;-75
2022/06/03 11:56:03;;;;;;;1.70;1.60;;;24.90;82.70;;;;;;5063959;28;20163;-73
2022/06/03 11:58:44;;;;;;;2.65;1.70;;;25.00;81.80;;;;;;5063734;28;20555;-75
2022/06/03 12:01:34;;;;;;;1.63;1.50;;;24.90;82.30;;;;;;5066835;28;20263;-73
2022/06/03 12:04:14;;;;;;;3.10;1.77;;;24.70;81.90;;;;;;5082438;28;20687;-75
2022/06/03 12:07:00;;;;;;;2.72;1.73;;;24.50;82.90;;;;;;5062251;28;20216;-74
2022/06/03 12:09:35;;;;;;;4.18;1.75;;;24.50;82.10;;;;;;5066494;28;20285;-75
2022/06/03 12:14:57;;;;;;;2.95;2.55;;;24.60;83.80;;;;;;5071706;28;20255;-74
2022/06/03 12:17:31;;;;;;;2.78;2.00;;;24.80;82.90;;;;;;5074156;28;20695;-75
2022/06/03 12:19:57;;;;;;;3.88;2.65;;;25.00;83.30;;;;;;5063484;28;20189;-74
2022/06/03 12:22:29;;;;;;;2.85;2.60;;;24.70;81.90;;;;;;5082969;28;20195;-75
2022/06/03 12:24:59;;;;;;;5.07;3.83;;;24.60;82.50;;;;;;5087683;28;20203;-75
2022/06/03 12:27:35;;;;;;;3.83;2.00;;;24.50;83.10;;;;;;5082872;28;20218;-73
2022/06/03 12:30:05;;;;;;;4.18;1.80;;;24.60;83.40;;;;;;5082752;28;20198;-74
2022/06/03 12:32:33;;;;;;;4.00;3.05;;;24.50;82.90;;;;;;5065106;28;20667;-75
2022/06/03 12:35:36;;;;;;;3.45;2.70;;;24.50;82.90;;;;;;5061979;28;20178;-75
2022/06/03 12:38:19;;;;;;;2.75;2.10;;;24.40;83.30;;;;;;5079721;28;20206;-75
2022/06/03 12:40:47;;;;;;;2.50;1.88;;;24.50;83.20;;;;;;5066837;28;20166;-74
2022/06/03 12:43:28;;;;;;;3.20;2.03;;;24.40;83.10;;;;;;5085845;28;20255;-74
2022/06/03 12:46:07;;;;;;;2.30;1.55;;;24.30;83.70;;;;;;5083517;28;20248;-75
2022/06/03 12:48:48;;;;;;;7.93;2.25;;;24.30;82.60;;;;;;5066824;28;20209;-74
2022/06/03 12:51:29;;;;;;;3.53;1.85;;;24.30;82.70;;;;;;5077237;28;20205;-75
2022/06/03 12:54:14;;;;;;;3.33;2.00;;;24.50;83.20;;;;;;5076909;28;20289;-75
2022/06/03 12:56:45;;;;;;;2.08;1.90;;;24.70;83.70;;;;;;5065996;28;20229;-75
2022/06/03 12:59:23;;;;;;;2.30;2.10;;;24.80;82.00;;;;;;5065942;28;20422;-74
2022/06/03 13:02:03;;;;;;;1.83;1.73;;;25.10;82.80;;;;;;5074348;28;20190;-76
2022/06/03 13:04:46;;;;;;;3.25;2.40;;;25.10;82.50;;;;;;5084396;28;20451;-75
2022/06/03 13:07:27;;;;;;;1.92;1.73;;;25.30;82.60;;;;;;5074146;28;20207;-75
2022/06/03 13:10:17;;;;;;;6.22;2.40;;;25.40;81.60;;;;;;5075164;28;20202;-75
2022/06/03 13:12:43;;;;;;;3.05;1.95;;;25.30;82.30;;;;;;5070990;28;20203;-75
2022/06/03 13:15:20;;;;;;;4.13;1.52;;;25.20;81.80;;;;;;5081058;28;20590;-74
2022/06/03 13:18:13;;;;;;;2.15;1.95;;;25.10;82.40;;;;;;5066828;28;20222;-73
2022/06/03 13:20:49;;;;;;;3.33;1.60;;;24.80;81.50;;;;;;5082937;28;20272;-73
2022/06/03 13:23:26;;;;;;;2.00;1.40;;;24.90;81.60;;;;;;5083920;28;20221;-74
2022/06/03 13:25:56;;;;;;;2.33;1.23;;;25.10;79.30;;;;;;5056278;28;20178;-73
2022/06/03 13:28:25;;;;;;;1.98;1.48;;;25.00;76.80;;;;;;5065678;28;20171;-74
2022/06/03 13:31:06;;;;;;;1.50;1.30;;;24.90;77.40;;;;;;5066234;28;20216;-76
2022/06/03 13:33:31;;;;;;;1.88;1.65;;;25.00;78.00;;;;;;5082672;28;20205;-76
2022/06/03 13:36:07;;;;;;;4.18;3.60;;;25.00;77.50;;;;;;5061828;28;20202;-76
2022/06/03 13:38:46;;;;;;;2.88;1.70;;;24.90;77.80;;;;;;5063685;28;20225;-76
2022/06/03 13:44:46;;;;;;;3.00;1.50;;;24.80;78.00;;;;;;5080259;28;20573;-76
2022/06/03 13:47:28;;;;;;;3.20;2.20;;;25.10;78.10;;;;;;5058714;28;20203;-75
2022/06/03 13:49:57;;;;;;;1.35;1.25;;;25.10;78.30;;;;;;5054941;28;20177;-75
2022/06/03 13:52:30;;;;;;;1.92;1.73;;;25.10;77.90;;;;;;5093828;22;20242;-71
2022/06/03 13:55:06;;;;;;;2.35;1.45;;;25.20;77.80;;;;;;5103790;27;20658;-72
2022/06/03 13:57:37;;;;;;;1.70;1.55;;;25.10;76.90;;;;;;5101080;28;20603;-73
2022/06/03 14:00:18;;;;;;;4.00;1.70;;;25.10;78.10;;;;;;5090068;28;20290;-73
2022/06/03 14:02:47;;;;;;;3.65;1.98;;;25.00;77.90;;;;;;5104990;28;20246;-73
2022/06/03 14:05:43;;;;;;;3.25;1.95;;;24.90;77.60;;;;;;5091308;28;20219;-72
2022/06/03 14:08:33;;;;;;;6.28;4.28;;;24.80;76.50;;;;;;5089154;28;20202;-73
2022/06/03 14:11:10;;;;;;;4.50;1.95;;;24.90;76.80;;;;;;5091465;28;20304;-73
2022/06/03 14:14:00;;;;;;;4.55;3.25;;;25.00;76.30;;;;;;5103384;28;20202;-72
2022/06/03 14:16:39;;;;;;;3.97;1.85;;;25.10;75.70;;;;;;5102922;28;20209;-72
2022/06/03 14:19:08;;;;;;;1.70;1.40;;;25.20;75.90;;;;;;5103151;28;20697;-71
2022/06/03 14:21:53;;;;;;;2.70;2.10;;;25.40;77.20;;;;;;5099318;28;20198;-72
2022/06/03 14:24:25;;;;;;;4.03;2.70;;;25.40;77.50;;;;;;5106268;28;20284;-72